sensor_id;sensor_type;location;lat;lon;timestamp;P1;durP1;ratioP1;P2;durP2;ratioP2
18383;SDS011;9318;48.644;9.456;2022-10-16T00:00:39;5.80;;;3.60;;
18383;SDS011;9318;48.644;9.456;2022-10-16T00:03:08;9.77;;;3.50;;
18383;SDS011;9318;48.644;9.456;2022-10-16T00:05:39;7.85;;;3.63;;
18383;SDS011;9318;48.644;9.456;2022-10-16T00:08:08;8.82;;;3.97;;
18383;SDS011;9318;48.644;9.456;2022-10-16T00:10:37;7.97;;;3.90;;
18383;SDS011;9318;48.644;9.456;2022-10-16T00:13:06;6.95;;;3.10;;
18383;SDS011;9318;48.644;9.456;2022-10-16T00:15:34;6.63;;;3.40;;
18383;SDS011;9318;48.644;9.456;2022-10-16T00:18:04;8.75;;;4.15;;
18383;SDS011;9318;48.644;9.456;2022-10-16T00:20:33;7.10;;;3.47;;
18383;SDS011;9318;48.644;9.456;2022-10-16T00:23:02;4.50;;;2.78;;
18383;SDS011;9318;48.644;9.456;2022-10-16T00:25:30;6.78;;;3.55;;
18383;SDS011;9318;48.644;9.456;2022-10-16T00:27:59;6.80;;;3.40;;
18383;SDS011;9318;48.644;9.456;2022-10-16T00:30:27;5.63;;;3.10;;
18383;SDS011;9318;48.644;9.456;2022-10-16T00:32:54;5.77;;;2.90;;
18383;SDS011;9318;48.644;9.456;2022-10-16T00:35:22;9.87;;;4.53;;
18383;SDS011;9318;48.644;9.456;2022-10-16T00:37:49;7.07;;;3.10;;
18383;SDS011;9318;48.644;9.456;2022-10-16T00:40:16;7.93;;;3.42;;
18383;SDS011;9318;48.644;9.456;2022-10-16T00:42:43;5.10;;;2.90;;
18383;SDS011;9318;48.644;9.456;2022-10-16T00:45:10;3.53;;;2.67;;
18383;SDS011;9318;48.644;9.456;2022-10-16T00:47:40;5.47;;;2.70;;
18383;SDS011;9318;48.644;9.456;2022-10-16T00:50:16;8.50;;;3.42;;
18383;SDS011;9318;48.644;9.456;2022-10-16T00:52:49;14.13;;;4.70;;
18383;SDS011;9318;48.644;9.456;2022-10-16T00:55:19;16.23;;;5.57;;
18383;SDS011;9318;48.644;9.456;2022-10-16T00:57:46;8.10;;;3.90;;
18383;SDS011;9318;48.644;9.456;2022-10-16T01:00:15;12.47;;;3.97;;
18383;SDS011;9318;48.644;9.456;2022-10-16T01:02:51;8.30;;;3.33;;
18383;SDS011;9318;48.644;9.456;2022-10-16T01:05:19;14.13;;;5.97;;
18383;SDS011;9318;48.644;9.456;2022-10-16T01:07:49;14.67;;;5.83;;
18383;SDS011;9318;48.644;9.456;2022-10-16T01:10:26;10.03;;;4.30;;
18383;SDS011;9318;48.644;9.456;2022-10-16T01:13:03;5.80;;;3.27;;
18383;SDS011;9318;48.644;9.456;2022-10-16T01:15:34;8.57;;;3.00;;
18383;SDS011;9318;48.644;9.456;2022-10-16T01:18:06;7.30;;;3.07;;
18383;SDS011;9318;48.644;9.456;2022-10-16T01:20:39;5.90;;;2.77;;
18383;SDS011;9318;48.644;9.456;2022-10-16T01:23:19;4.30;;;2.70;;
18383;SDS011;9318;48.644;9.456;2022-10-16T01:26:00;7.40;;;2.70;;
18383;SDS011;9318;48.644;9.456;2022-10-16T01:28:52;7.37;;;3.00;;
18383;SDS011;9318;48.644;9.456;2022-10-16T01:31:24;7.50;;;3.00;;
18383;SDS011;9318;48.644;9.456;2022-10-16T01:33:56;7.53;;;2.80;;
18383;SDS011;9318;48.644;9.456;2022-10-16T01:36:29;5.70;;;2.80;;
18383;SDS011;9318;48.644;9.456;2022-10-16T01:39:02;4.77;;;2.57;;
18383;SDS011;9318;48.644;9.456;2022-10-16T01:41:31;4.30;;;2.80;;
18383;SDS011;9318;48.644;9.456;2022-10-16T01:44:03;4.03;;;2.70;;
18383;SDS011;9318;48.644;9.456;2022-10-16T01:46:34;7.60;;;2.80;;
18383;SDS011;9318;48.644;9.456;2022-10-16T01:49:04;4.93;;;2.70;;
18383;SDS011;9318;48.644;9.456;2022-10-16T01:51:32;5.03;;;2.70;;
18383;SDS011;9318;48.644;9.456;2022-10-16T01:54:01;6.40;;;2.60;;
18383;SDS011;9318;48.644;9.456;2022-10-16T01:56:30;6.80;;;3.53;;
18383;SDS011;9318;48.644;9.456;2022-10-16T01:58:59;7.28;;;3.17;;
18383;SDS011;9318;48.644;9.456;2022-10-16T02:01:30;6.23;;;3.27;;
18383;SDS011;9318;48.644;9.456;2022-10-16T02:04:02;6.37;;;3.10;;
18383;SDS011;9318;48.644;9.456;2022-10-16T02:06:34;5.00;;;2.90;;
18383;SDS011;9318;48.644;9.456;2022-10-16T02:09:01;5.23;;;3.20;;
18383;SDS011;9318;48.644;9.456;2022-10-16T02:11:28;6.13;;;2.70;;
18383;SDS011;9318;48.644;9.456;2022-10-16T02:13:58;2.47;;;2.27;;
18383;SDS011;9318;48.644;9.456;2022-10-16T02:16:34;6.27;;;3.47;;
18383;SDS011;9318;48.644;9.456;2022-10-16T02:19:03;9.27;;;3.60;;
18383;SDS011;9318;48.644;9.456;2022-10-16T02:21:33;6.63;;;3.60;;
18383;SDS011;9318;48.644;9.456;2022-10-16T02:24:07;5.57;;;2.80;;
18383;SDS011;9318;48.644;9.456;2022-10-16T02:26:42;6.27;;;2.43;;
18383;SDS011;9318;48.644;9.456;2022-10-16T02:29:16;4.90;;;2.60;;
18383;SDS011;9318;48.644;9.456;2022-10-16T02:31:49;7.27;;;2.70;;
18383;SDS011;9318;48.644;9.456;2022-10-16T02:34:18;4.23;;;2.40;;
18383;SDS011;9318;48.644;9.456;2022-10-16T02:36:49;4.00;;;2.30;;
18383;SDS011;9318;48.644;9.456;2022-10-16T02:39:18;5.13;;;2.40;;
18383;SDS011;9318;48.644;9.456;2022-10-16T02:41:47;3.37;;;2.00;;
18383;SDS011;9318;48.644;9.456;2022-10-16T02:44:14;6.60;;;2.63;;
18383;SDS011;9318;48.644;9.456;2022-10-16T02:46:41;4.67;;;2.30;;
18383;SDS011;9318;48.644;9.456;2022-10-16T02:49:10;5.23;;;2.43;;
18383;SDS011;9318;48.644;9.456;2022-10-16T02:51:37;4.83;;;2.70;;
18383;SDS011;9318;48.644;9.456;2022-10-16T02:54:04;9.57;;;2.70;;
18383;SDS011;9318;48.644;9.456;2022-10-16T02:56:31;4.50;;;2.50;;
18383;SDS011;9318;48.644;9.456;2022-10-16T02:58:58;4.63;;;2.20;;
18383;SDS011;9318;48.644;9.456;2022-10-16T03:01:25;3.83;;;2.20;;
18383;SDS011;9318;48.644;9.456;2022-10-16T03:03:53;6.33;;;2.60;;
18383;SDS011;9318;48.644;9.456;2022-10-16T03:06:21;3.80;;;2.33;;
18383;SDS011;9318;48.644;9.456;2022-10-16T03:08:48;5.70;;;2.80;;
18383;SDS011;9318;48.644;9.456;2022-10-16T03:11:16;5.93;;;2.30;;
18383;SDS011;9318;48.644;9.456;2022-10-16T03:13:43;8.57;;;2.50;;
18383;SDS011;9318;48.644;9.456;2022-10-16T03:16:10;6.10;;;2.40;;
18383;SDS011;9318;48.644;9.456;2022-10-16T03:18:37;9.53;;;3.33;;
18383;SDS011;9318;48.644;9.456;2022-10-16T03:21:05;4.77;;;2.40;;
18383;SDS011;9318;48.644;9.456;2022-10-16T03:23:33;9.27;;;2.20;;
18383;SDS011;9318;48.644;9.456;2022-10-16T03:26:00;4.27;;;2.60;;
18383;SDS011;9318;48.644;9.456;2022-10-16T03:28:28;3.37;;;2.20;;
18383;SDS011;9318;48.644;9.456;2022-10-16T03:30:55;4.30;;;2.10;;
18383;SDS011;9318;48.644;9.456;2022-10-16T03:33:22;6.43;;;2.47;;
18383;SDS011;9318;48.644;9.456;2022-10-16T03:35:53;2.67;;;2.10;;
18383;SDS011;9318;48.644;9.456;2022-10-16T03:38:20;4.00;;;2.30;;
18383;SDS011;9318;48.644;9.456;2022-10-16T03:40:49;3.93;;;2.20;;
18383;SDS011;9318;48.644;9.456;2022-10-16T03:43:16;2.60;;;2.40;;
18383;SDS011;9318;48.644;9.456;2022-10-16T03:45:43;9.27;;;3.13;;
18383;SDS011;9318;48.644;9.456;2022-10-16T03:48:10;5.33;;;2.20;;
18383;SDS011;9318;48.644;9.456;2022-10-16T03:50:37;7.17;;;2.50;;
18383;SDS011;9318;48.644;9.456;2022-10-16T03:53:05;4.23;;;2.37;;
18383;SDS011;9318;48.644;9.456;2022-10-16T03:55:32;7.20;;;2.30;;
18383;SDS011;9318;48.644;9.456;2022-10-16T03:58:00;6.37;;;2.30;;
18383;SDS011;9318;48.644;9.456;2022-10-16T04:00:28;7.27;;;2.80;;
18383;SDS011;9318;48.644;9.456;2022-10-16T04:02:55;4.63;;;2.30;;
18383;SDS011;9318;48.644;9.456;2022-10-16T04:05:22;4.13;;;2.50;;
18383;SDS011;9318;48.644;9.456;2022-10-16T04:07:49;3.93;;;2.43;;
18383;SDS011;9318;48.644;9.456;2022-10-16T04:10:16;3.87;;;2.30;;
18383;SDS011;9318;48.644;9.456;2022-10-16T04:12:44;5.67;;;2.90;;
18383;SDS011;9318;48.644;9.456;2022-10-16T04:15:13;5.07;;;2.70;;
18383;SDS011;9318;48.644;9.456;2022-10-16T04:17:40;3.77;;;2.77;;
18383;SDS011;9318;48.644;9.456;2022-10-16T04:20:07;5.70;;;2.87;;
18383;SDS011;9318;48.644;9.456;2022-10-16T04:22:35;5.63;;;3.37;;
18383;SDS011;9318;48.644;9.456;2022-10-16T04:25:02;7.67;;;3.50;;
18383;SDS011;9318;48.644;9.456;2022-10-16T04:27:30;7.27;;;3.00;;
18383;SDS011;9318;48.644;9.456;2022-10-16T04:29:57;5.30;;;3.33;;
18383;SDS011;9318;48.644;9.456;2022-10-16T04:32:26;4.87;;;3.00;;
18383;SDS011;9318;48.644;9.456;2022-10-16T04:34:54;6.30;;;3.13;;
18383;SDS011;9318;48.644;9.456;2022-10-16T04:37:23;10.90;;;3.60;;
18383;SDS011;9318;48.644;9.456;2022-10-16T04:39:51;8.13;;;3.50;;
18383;SDS011;9318;48.644;9.456;2022-10-16T04:42:18;14.00;;;3.73;;
18383;SDS011;9318;48.644;9.456;2022-10-16T04:44:46;9.20;;;4.10;;
18383;SDS011;9318;48.644;9.456;2022-10-16T04:47:13;4.63;;;3.23;;
18383;SDS011;9318;48.644;9.456;2022-10-16T04:49:42;9.33;;;3.80;;
18383;SDS011;9318;48.644;9.456;2022-10-16T04:52:09;9.10;;;3.13;;
18383;SDS011;9318;48.644;9.456;2022-10-16T04:54:36;8.00;;;3.60;;
18383;SDS011;9318;48.644;9.456;2022-10-16T04:57:03;9.10;;;3.30;;
18383;SDS011;9318;48.644;9.456;2022-10-16T04:59:31;7.73;;;3.50;;
18383;SDS011;9318;48.644;9.456;2022-10-16T05:01:58;9.00;;;3.60;;
18383;SDS011;9318;48.644;9.456;2022-10-16T05:04:25;7.60;;;3.33;;
18383;SDS011;9318;48.644;9.456;2022-10-16T05:06:54;5.80;;;3.43;;
18383;SDS011;9318;48.644;9.456;2022-10-16T05:09:21;7.67;;;3.83;;
18383;SDS011;9318;48.644;9.456;2022-10-16T05:11:48;6.77;;;3.70;;
18383;SDS011;9318;48.644;9.456;2022-10-16T05:14:15;5.60;;;3.83;;
18383;SDS011;9318;48.644;9.456;2022-10-16T05:16:43;7.60;;;3.90;;
18383;SDS011;9318;48.644;9.456;2022-10-16T05:19:10;10.90;;;3.50;;
18383;SDS011;9318;48.644;9.456;2022-10-16T05:21:37;8.17;;;3.50;;
18383;SDS011;9318;48.644;9.456;2022-10-16T05:24:06;11.40;;;4.30;;
18383;SDS011;9318;48.644;9.456;2022-10-16T05:26:34;7.30;;;3.57;;
18383;SDS011;9318;48.644;9.456;2022-10-16T05:29:01;9.33;;;4.00;;
18383;SDS011;9318;48.644;9.456;2022-10-16T05:31:28;9.30;;;4.20;;
18383;SDS011;9318;48.644;9.456;2022-10-16T05:33:57;8.27;;;3.90;;
18383;SDS011;9318;48.644;9.456;2022-10-16T05:36:25;10.27;;;4.83;;
18383;SDS011;9318;48.644;9.456;2022-10-16T05:38:53;9.27;;;3.80;;
18383;SDS011;9318;48.644;9.456;2022-10-16T05:41:21;10.87;;;3.83;;
18383;SDS011;9318;48.644;9.456;2022-10-16T05:43:50;7.23;;;3.97;;
18383;SDS011;9318;48.644;9.456;2022-10-16T05:46:18;8.23;;;3.57;;
18383;SDS011;9318;48.644;9.456;2022-10-16T05:48:45;6.23;;;3.73;;
18383;SDS011;9318;48.644;9.456;2022-10-16T05:51:14;10.23;;;4.50;;
18383;SDS011;9318;48.644;9.456;2022-10-16T05:53:41;9.77;;;4.37;;
18383;SDS011;9318;48.644;9.456;2022-10-16T05:56:09;5.60;;;3.60;;
18383;SDS011;9318;48.644;9.456;2022-10-16T05:58:39;11.70;;;4.47;;
18383;SDS011;9318;48.644;9.456;2022-10-16T06:01:07;6.10;;;3.63;;
18383;SDS011;9318;48.644;9.456;2022-10-16T06:03:37;9.23;;;3.63;;
18383;SDS011;9318;48.644;9.456;2022-10-16T06:06:08;5.07;;;3.43;;
18383;SDS011;9318;48.644;9.456;2022-10-16T06:08:36;5.90;;;3.20;;
18383;SDS011;9318;48.644;9.456;2022-10-16T06:11:04;7.13;;;3.63;;
18383;SDS011;9318;48.644;9.456;2022-10-16T06:13:32;9.87;;;3.87;;
18383;SDS011;9318;48.644;9.456;2022-10-16T06:16:01;7.07;;;3.50;;
18383;SDS011;9318;48.644;9.456;2022-10-16T06:18:29;5.00;;;3.87;;
18383;SDS011;9318;48.644;9.456;2022-10-16T06:20:57;5.73;;;3.90;;
18383;SDS011;9318;48.644;9.456;2022-10-16T06:23:24;7.27;;;3.80;;
18383;SDS011;9318;48.644;9.456;2022-10-16T06:25:54;8.20;;;3.83;;
18383;SDS011;9318;48.644;9.456;2022-10-16T06:28:30;8.40;;;3.70;;
18383;SDS011;9318;48.644;9.456;2022-10-16T06:30:58;8.80;;;4.10;;
18383;SDS011;9318;48.644;9.456;2022-10-16T06:33:27;8.27;;;4.17;;
18383;SDS011;9318;48.644;9.456;2022-10-16T06:35:59;10.70;;;5.10;;
18383;SDS011;9318;48.644;9.456;2022-10-16T06:38:27;14.93;;;6.30;;
18383;SDS011;9318;48.644;9.456;2022-10-16T06:40:55;14.67;;;5.87;;
18383;SDS011;9318;48.644;9.456;2022-10-16T06:43:22;9.63;;;4.97;;
18383;SDS011;9318;48.644;9.456;2022-10-16T06:45:52;6.40;;;3.90;;
18383;SDS011;9318;48.644;9.456;2022-10-16T06:48:21;14.37;;;3.70;;
18383;SDS011;9318;48.644;9.456;2022-10-16T06:50:57;8.80;;;3.60;;
18383;SDS011;9318;48.644;9.456;2022-10-16T06:53:24;7.57;;;3.80;;
18383;SDS011;9318;48.644;9.456;2022-10-16T06:55:52;9.07;;;3.67;;
18383;SDS011;9318;48.644;9.456;2022-10-16T06:58:20;13.17;;;3.60;;
18383;SDS011;9318;48.644;9.456;2022-10-16T07:00:47;7.40;;;3.80;;
18383;SDS011;9318;48.644;9.456;2022-10-16T07:03:14;5.63;;;3.63;;
18383;SDS011;9318;48.644;9.456;2022-10-16T07:05:43;6.63;;;4.25;;
18383;SDS011;9318;48.644;9.456;2022-10-16T07:08:10;7.93;;;3.67;;
18383;SDS011;9318;48.644;9.456;2022-10-16T07:10:38;9.73;;;3.93;;
18383;SDS011;9318;48.644;9.456;2022-10-16T07:13:05;8.55;;;4.00;;
18383;SDS011;9318;48.644;9.456;2022-10-16T07:15:33;9.13;;;4.03;;
18383;SDS011;9318;48.644;9.456;2022-10-16T07:18:00;9.83;;;4.07;;
18383;SDS011;9318;48.644;9.456;2022-10-16T07:20:27;8.18;;;4.35;;
18383;SDS011;9318;48.644;9.456;2022-10-16T07:22:56;8.17;;;4.20;;
18383;SDS011;9318;48.644;9.456;2022-10-16T07:25:23;6.67;;;4.00;;
18383;SDS011;9318;48.644;9.456;2022-10-16T07:27:50;8.17;;;4.20;;
18383;SDS011;9318;48.644;9.456;2022-10-16T07:30:20;6.80;;;4.18;;
18383;SDS011;9318;48.644;9.456;2022-10-16T07:32:47;7.32;;;4.07;;
18383;SDS011;9318;48.644;9.456;2022-10-16T07:35:14;8.93;;;4.38;;
18383;SDS011;9318;48.644;9.456;2022-10-16T07:37:44;10.75;;;4.13;;
18383;SDS011;9318;48.644;9.456;2022-10-16T07:40:12;4.53;;;3.58;;
18383;SDS011;9318;48.644;9.456;2022-10-16T07:42:39;7.65;;;4.13;;
18383;SDS011;9318;48.644;9.456;2022-10-16T07:45:07;8.27;;;4.07;;
18383;SDS011;9318;48.644;9.456;2022-10-16T07:47:34;7.80;;;3.77;;
18383;SDS011;9318;48.644;9.456;2022-10-16T07:50:02;10.60;;;4.30;;
18383;SDS011;9318;48.644;9.456;2022-10-16T07:52:29;10.55;;;4.18;;
18383;SDS011;9318;48.644;9.456;2022-10-16T07:54:56;12.02;;;4.30;;
18383;SDS011;9318;48.644;9.456;2022-10-16T07:57:25;7.68;;;3.90;;
18383;SDS011;9318;48.644;9.456;2022-10-16T07:59:52;6.83;;;3.90;;
18383;SDS011;9318;48.644;9.456;2022-10-16T08:02:19;9.55;;;3.47;;
18383;SDS011;9318;48.644;9.456;2022-10-16T08:04:46;5.63;;;3.43;;
18383;SDS011;9318;48.644;9.456;2022-10-16T08:07:15;5.53;;;3.40;;
18383;SDS011;9318;48.644;9.456;2022-10-16T08:09:42;8.02;;;3.40;;
18383;SDS011;9318;48.644;9.456;2022-10-16T08:12:09;8.23;;;3.40;;
18383;SDS011;9318;48.644;9.456;2022-10-16T08:14:38;8.13;;;3.10;;
18383;SDS011;9318;48.644;9.456;2022-10-16T08:17:07;7.20;;;3.20;;
18383;SDS011;9318;48.644;9.456;2022-10-16T08:19:34;6.75;;;2.97;;
18383;SDS011;9318;48.644;9.456;2022-10-16T08:22:01;5.00;;;2.88;;
18383;SDS011;9318;48.644;9.456;2022-10-16T08:24:28;5.03;;;3.10;;
18383;SDS011;9318;48.644;9.456;2022-10-16T08:26:56;5.90;;;2.88;;
18383;SDS011;9318;48.644;9.456;2022-10-16T08:29:23;6.05;;;2.70;;
18383;SDS011;9318;48.644;9.456;2022-10-16T08:31:52;5.13;;;3.03;;
18383;SDS011;9318;48.644;9.456;2022-10-16T08:34:19;6.35;;;3.08;;
18383;SDS011;9318;48.644;9.456;2022-10-16T08:36:46;7.07;;;3.30;;
18383;SDS011;9318;48.644;9.456;2022-10-16T08:39:13;6.05;;;2.90;;
18383;SDS011;9318;48.644;9.456;2022-10-16T08:44:55;6.38;;;2.90;;
18383;SDS011;9318;48.644;9.456;2022-10-16T08:47:44;4.65;;;2.88;;
18383;SDS011;9318;48.644;9.456;2022-10-16T08:50:18;4.13;;;2.88;;
18383;SDS011;9318;48.644;9.456;2022-10-16T08:52:49;3.35;;;2.78;;
18383;SDS011;9318;48.644;9.456;2022-10-16T08:55:20;4.57;;;3.03;;
18383;SDS011;9318;48.644;9.456;2022-10-16T08:58:05;8.00;;;2.80;;
18383;SDS011;9318;48.644;9.456;2022-10-16T09:00:38;5.00;;;2.70;;
18383;SDS011;9318;48.644;9.456;2022-10-16T09:03:11;6.00;;;2.70;;
18383;SDS011;9318;48.644;9.456;2022-10-16T09:05:51;7.68;;;2.50;;
18383;SDS011;9318;48.644;9.456;2022-10-16T09:08:26;6.93;;;3.38;;
18383;SDS011;9318;48.644;9.456;2022-10-16T09:11:03;3.55;;;2.70;;
18383;SDS011;9318;48.644;9.456;2022-10-16T09:13:40;8.73;;;3.08;;
18383;SDS011;9318;48.644;9.456;2022-10-16T09:16:18;8.27;;;2.88;;
18383;SDS011;9318;48.644;9.456;2022-10-16T09:18:54;10.55;;;3.00;;
18383;SDS011;9318;48.644;9.456;2022-10-16T09:21:28;5.70;;;2.88;;
18383;SDS011;9318;48.644;9.456;2022-10-16T09:23:57;4.45;;;2.60;;
18383;SDS011;9318;48.644;9.456;2022-10-16T09:26:31;3.92;;;3.00;;
18383;SDS011;9318;48.644;9.456;2022-10-16T09:28:58;6.20;;;2.80;;
18383;SDS011;9318;48.644;9.456;2022-10-16T09:31:25;6.72;;;3.10;;
18383;SDS011;9318;48.644;9.456;2022-10-16T09:33:54;4.95;;;2.78;;
18383;SDS011;9318;48.644;9.456;2022-10-16T09:36:25;8.57;;;3.65;;
18383;SDS011;9318;48.644;9.456;2022-10-16T09:39:04;4.43;;;2.67;;
18383;SDS011;9318;48.644;9.456;2022-10-16T09:41:33;4.50;;;2.47;;
18383;SDS011;9318;48.644;9.456;2022-10-16T09:44:03;6.43;;;2.80;;
18383;SDS011;9318;48.644;9.456;2022-10-16T09:46:39;7.60;;;2.67;;
18383;SDS011;9318;48.644;9.456;2022-10-16T09:49:18;4.57;;;2.67;;
18383;SDS011;9318;48.644;9.456;2022-10-16T09:51:47;4.13;;;2.72;;
18383;SDS011;9318;48.644;9.456;2022-10-16T09:54:16;6.35;;;2.80;;
18383;SDS011;9318;48.644;9.456;2022-10-16T09:56:44;4.97;;;2.50;;
18383;SDS011;9318;48.644;9.456;2022-10-16T09:59:14;5.35;;;2.72;;
18383;SDS011;9318;48.644;9.456;2022-10-16T10:01:44;5.68;;;2.72;;
18383;SDS011;9318;48.644;9.456;2022-10-16T10:04:13;5.88;;;2.55;;
18383;SDS011;9318;48.644;9.456;2022-10-16T10:06:43;7.72;;;2.95;;
18383;SDS011;9318;48.644;9.456;2022-10-16T10:09:16;4.15;;;3.17;;
18383;SDS011;9318;48.644;9.456;2022-10-16T10:11:53;7.38;;;2.95;;
18383;SDS011;9318;48.644;9.456;2022-10-16T10:14:22;8.85;;;2.90;;
18383;SDS011;9318;48.644;9.456;2022-10-16T10:16:52;8.27;;;3.50;;
18383;SDS011;9318;48.644;9.456;2022-10-16T10:19:28;5.00;;;3.08;;
18383;SDS011;9318;48.644;9.456;2022-10-16T10:21:56;8.00;;;2.90;;
18383;SDS011;9318;48.644;9.456;2022-10-16T10:24:23;4.72;;;2.80;;
18383;SDS011;9318;48.644;9.456;2022-10-16T10:26:53;8.90;;;3.20;;
18383;SDS011;9318;48.644;9.456;2022-10-16T10:29:28;4.47;;;2.70;;
18383;SDS011;9318;48.644;9.456;2022-10-16T10:32:08;5.18;;;2.50;;
18383;SDS011;9318;48.644;9.456;2022-10-16T10:34:51;4.70;;;2.85;;
18383;SDS011;9318;48.644;9.456;2022-10-16T10:37:32;5.40;;;3.10;;
18383;SDS011;9318;48.644;9.456;2022-10-16T10:40:09;2.30;;;2.10;;
18383;SDS011;9318;48.644;9.456;2022-10-16T10:42:48;3.63;;;2.40;;
18383;SDS011;9318;48.644;9.456;2022-10-16T10:45:23;4.78;;;2.30;;
18383;SDS011;9318;48.644;9.456;2022-10-16T10:47:57;5.47;;;2.30;;
18383;SDS011;9318;48.644;9.456;2022-10-16T10:50:34;3.28;;;2.20;;
18383;SDS011;9318;48.644;9.456;2022-10-16T10:53:11;5.07;;;2.40;;
18383;SDS011;9318;48.644;9.456;2022-10-16T10:55:48;3.25;;;2.20;;
18383;SDS011;9318;48.644;9.456;2022-10-16T11:01:14;4.75;;;2.28;;
18383;SDS011;9318;48.644;9.456;2022-10-16T11:03:48;3.72;;;2.30;;
18383;SDS011;9318;48.644;9.456;2022-10-16T11:06:34;4.15;;;2.10;;
18383;SDS011;9318;48.644;9.456;2022-10-16T11:09:09;3.15;;;2.10;;
18383;SDS011;9318;48.644;9.456;2022-10-16T11:11:42;6.85;;;2.30;;
18383;SDS011;9318;48.644;9.456;2022-10-16T11:14:14;4.85;;;2.13;;
18383;SDS011;9318;48.644;9.456;2022-10-16T11:16:47;2.65;;;2.20;;
18383;SDS011;9318;48.644;9.456;2022-10-16T11:19:21;5.78;;;2.03;;
18383;SDS011;9318;48.644;9.456;2022-10-16T11:22:00;4.82;;;2.40;;
18383;SDS011;9318;48.644;9.456;2022-10-16T11:24:34;4.85;;;2.58;;
18383;SDS011;9318;48.644;9.456;2022-10-16T11:27:08;2.17;;;1.98;;
18383;SDS011;9318;48.644;9.456;2022-10-16T11:29:41;5.03;;;2.03;;
18383;SDS011;9318;48.644;9.456;2022-10-16T11:32:18;9.82;;;4.18;;
18383;SDS011;9318;48.644;9.456;2022-10-16T11:34:51;6.20;;;2.10;;
18383;SDS011;9318;48.644;9.456;2022-10-16T11:37:24;2.90;;;1.80;;
18383;SDS011;9318;48.644;9.456;2022-10-16T11:39:58;3.03;;;2.15;;
18383;SDS011;9318;48.644;9.456;2022-10-16T11:42:37;2.47;;;1.90;;
18383;SDS011;9318;48.644;9.456;2022-10-16T11:45:13;2.80;;;1.92;;
18383;SDS011;9318;48.644;9.456;2022-10-16T11:47:48;4.60;;;1.98;;
18383;SDS011;9318;48.644;9.456;2022-10-16T11:50:22;4.82;;;1.60;;
18383;SDS011;9318;48.644;9.456;2022-10-16T11:52:56;2.13;;;1.50;;
18383;SDS011;9318;48.644;9.456;2022-10-16T11:55:31;3.05;;;1.52;;
18383;SDS011;9318;48.644;9.456;2022-10-16T11:58:03;3.92;;;1.50;;
18383;SDS011;9318;48.644;9.456;2022-10-16T12:00:37;5.15;;;1.60;;
18383;SDS011;9318;48.644;9.456;2022-10-16T12:03:11;4.00;;;1.55;;
18383;SDS011;9318;48.644;9.456;2022-10-16T12:05:57;1.70;;;1.60;;
18383;SDS011;9318;48.644;9.456;2022-10-16T12:08:33;3.40;;;1.52;;
18383;SDS011;9318;48.644;9.456;2022-10-16T12:11:09;3.83;;;1.77;;
18383;SDS011;9318;48.644;9.456;2022-10-16T12:13:50;3.13;;;1.70;;
18383;SDS011;9318;48.644;9.456;2022-10-16T12:16:23;5.07;;;2.45;;
18383;SDS011;9318;48.644;9.456;2022-10-16T12:19:02;5.57;;;2.55;;
18383;SDS011;9318;48.644;9.456;2022-10-16T12:21:36;5.15;;;1.70;;
18383;SDS011;9318;48.644;9.456;2022-10-16T12:24:04;2.75;;;1.80;;
18383;SDS011;9318;48.644;9.456;2022-10-16T12:26:33;6.50;;;2.08;;
18383;SDS011;9318;48.644;9.456;2022-10-16T12:29:13;6.45;;;1.92;;
18383;SDS011;9318;48.644;9.456;2022-10-16T12:31:48;11.55;;;2.45;;
18383;SDS011;9318;48.644;9.456;2022-10-16T12:34:20;2.10;;;1.90;;
18383;SDS011;9318;48.644;9.456;2022-10-16T12:36:50;3.67;;;1.73;;
18383;SDS011;9318;48.644;9.456;2022-10-16T12:39:21;3.22;;;2.20;;
18383;SDS011;9318;48.644;9.456;2022-10-16T12:42:01;2.47;;;1.77;;
18383;SDS011;9318;48.644;9.456;2022-10-16T12:44:33;3.92;;;1.90;;
18383;SDS011;9318;48.644;9.456;2022-10-16T12:47:01;5.93;;;2.63;;
18383;SDS011;9318;48.644;9.456;2022-10-16T12:49:32;5.40;;;2.35;;
18383;SDS011;9318;48.644;9.456;2022-10-16T12:52:03;2.25;;;1.83;;
18383;SDS011;9318;48.644;9.456;2022-10-16T12:54:31;2.33;;;1.80;;
18383;SDS011;9318;48.644;9.456;2022-10-16T12:57:06;2.30;;;1.80;;
18383;SDS011;9318;48.644;9.456;2022-10-16T12:59:42;4.90;;;1.98;;
18383;SDS011;9318;48.644;9.456;2022-10-16T13:02:20;5.45;;;2.10;;
18383;SDS011;9318;48.644;9.456;2022-10-16T13:05:17;4.20;;;1.90;;
18383;SDS011;9318;48.644;9.456;2022-10-16T13:07:58;3.85;;;2.03;;
18383;SDS011;9318;48.644;9.456;2022-10-16T13:10:38;2.35;;;1.80;;
18383;SDS011;9318;48.644;9.456;2022-10-16T13:13:18;3.63;;;1.90;;
18383;SDS011;9318;48.644;9.456;2022-10-16T13:16:04;3.83;;;2.10;;
18383;SDS011;9318;48.644;9.456;2022-10-16T13:18:42;3.40;;;1.85;;
18383;SDS011;9318;48.644;9.456;2022-10-16T13:21:22;4.28;;;1.70;;
18383;SDS011;9318;48.644;9.456;2022-10-16T13:24:01;5.28;;;1.80;;
18383;SDS011;9318;48.644;9.456;2022-10-16T13:26:37;2.45;;;1.83;;
18383;SDS011;9318;48.644;9.456;2022-10-16T13:29:11;1.85;;;1.70;;
18383;SDS011;9318;48.644;9.456;2022-10-16T13:31:40;3.03;;;1.80;;
18383;SDS011;9318;48.644;9.456;2022-10-16T13:34:10;2.88;;;1.70;;
18383;SDS011;9318;48.644;9.456;2022-10-16T13:36:43;6.18;;;2.10;;
18383;SDS011;9318;48.644;9.456;2022-10-16T13:39:12;2.38;;;2.00;;
18383;SDS011;9318;48.644;9.456;2022-10-16T13:41:42;3.58;;;1.98;;
18383;SDS011;9318;48.644;9.456;2022-10-16T13:44:14;3.08;;;1.98;;
18383;SDS011;9318;48.644;9.456;2022-10-16T13:46:45;2.55;;;1.85;;
18383;SDS011;9318;48.644;9.456;2022-10-16T13:49:14;2.63;;;1.85;;
18383;SDS011;9318;48.644;9.456;2022-10-16T13:51:53;2.55;;;2.10;;
18383;SDS011;9318;48.644;9.456;2022-10-16T13:54:21;2.17;;;1.98;;
18383;SDS011;9318;48.644;9.456;2022-10-16T13:56:49;2.13;;;1.92;;
18383;SDS011;9318;48.644;9.456;2022-10-16T13:59:25;3.33;;;2.28;;
18383;SDS011;9318;48.644;9.456;2022-10-16T14:01:54;2.58;;;2.05;;
18383;SDS011;9318;48.644;9.456;2022-10-16T14:04:23;4.40;;;2.92;;
18383;SDS011;9318;48.644;9.456;2022-10-16T14:06:54;6.25;;;2.38;;
18383;SDS011;9318;48.644;9.456;2022-10-16T14:09:23;2.92;;;2.15;;
18383;SDS011;9318;48.644;9.456;2022-10-16T14:11:52;4.05;;;2.25;;
18383;SDS011;9318;48.644;9.456;2022-10-16T14:14:22;3.90;;;2.65;;
18383;SDS011;9318;48.644;9.456;2022-10-16T14:16:51;1.85;;;1.75;;
18383;SDS011;9318;48.644;9.456;2022-10-16T14:19:20;2.72;;;2.20;;
18383;SDS011;9318;48.644;9.456;2022-10-16T14:21:50;4.10;;;2.22;;
18383;SDS011;9318;48.644;9.456;2022-10-16T14:24:25;2.20;;;2.00;;
18383;SDS011;9318;48.644;9.456;2022-10-16T14:26:54;3.90;;;2.20;;
18383;SDS011;9318;48.644;9.456;2022-10-16T14:29:22;25.08;;;3.35;;
18383;SDS011;9318;48.644;9.456;2022-10-16T14:31:58;7.68;;;3.28;;
18383;SDS011;9318;48.644;9.456;2022-10-16T14:34:28;4.60;;;2.70;;
18383;SDS011;9318;48.644;9.456;2022-10-16T14:36:58;12.40;;;2.55;;
18383;SDS011;9318;48.644;9.456;2022-10-16T14:39:32;9.23;;;2.20;;
18383;SDS011;9318;48.644;9.456;2022-10-16T14:42:00;6.78;;;2.42;;
18383;SDS011;9318;48.644;9.456;2022-10-16T14:44:28;6.63;;;2.50;;
18383;SDS011;9318;48.644;9.456;2022-10-16T14:47:05;7.47;;;2.30;;
18383;SDS011;9318;48.644;9.456;2022-10-16T14:49:35;8.23;;;2.25;;
18383;SDS011;9318;48.644;9.456;2022-10-16T14:52:04;8.30;;;2.60;;
18383;SDS011;9318;48.644;9.456;2022-10-16T14:54:35;6.40;;;3.40;;
18383;SDS011;9318;48.644;9.456;2022-10-16T14:57:03;3.72;;;2.20;;
18383;SDS011;9318;48.644;9.456;2022-10-16T14:59:31;6.05;;;2.90;;
18383;SDS011;9318;48.644;9.456;2022-10-16T15:02:08;7.65;;;2.60;;
18383;SDS011;9318;48.644;9.456;2022-10-16T15:04:45;4.72;;;2.65;;
18383;SDS011;9318;48.644;9.456;2022-10-16T15:07:12;5.72;;;2.60;;
18383;SDS011;9318;48.644;9.456;2022-10-16T15:09:39;5.72;;;2.28;;
18383;SDS011;9318;48.644;9.456;2022-10-16T15:12:06;5.97;;;2.50;;
18383;SDS011;9318;48.644;9.456;2022-10-16T15:14:34;5.07;;;2.20;;
18383;SDS011;9318;48.644;9.456;2022-10-16T15:17:02;3.75;;;2.20;;
18383;SDS011;9318;48.644;9.456;2022-10-16T15:19:30;5.72;;;2.25;;
18383;SDS011;9318;48.644;9.456;2022-10-16T15:21:57;7.82;;;2.75;;
18383;SDS011;9318;48.644;9.456;2022-10-16T15:24:24;9.80;;;4.30;;
18383;SDS011;9318;48.644;9.456;2022-10-16T15:26:51;8.13;;;2.95;;